createdAt,value
2023-05-19T00:00:09.932Z,1.08
2023-05-19T00:02:39.794Z,0.82
2023-05-19T00:05:10.504Z,0.70
2023-05-19T00:07:40.677Z,0.73
2023-05-19T00:10:10.058Z,0.73
2023-05-19T00:12:38.956Z,0.68
2023-05-19T00:15:08.656Z,0.73
2023-05-19T00:17:38.449Z,0.90
2023-05-19T00:20:08.478Z,1.13
2023-05-19T00:22:37.076Z,1.20
2023-05-19T00:25:07.576Z,0.90
2023-05-19T00:27:35.583Z,1.05
2023-05-19T00:30:03.553Z,0.93
2023-05-19T00:32:31.587Z,0.90
2023-05-19T00:34:59.593Z,0.70
2023-05-19T00:37:27.870Z,0.80
2023-05-19T00:39:55.934Z,0.90
2023-05-19T00:42:25.728Z,0.75
2023-05-19T00:44:54.311Z,0.90
2023-05-19T00:47:23.281Z,0.70
2023-05-19T00:49:51.287Z,0.80
2023-05-19T00:52:19.407Z,0.63
2023-05-19T00:54:47.803Z,0.98
2023-05-19T00:57:16.216Z,0.80
2023-05-19T00:59:45.686Z,0.70
2023-05-19T01:02:13.728Z,0.98
2023-05-19T01:04:43.946Z,0.82
2023-05-19T01:07:12.685Z,0.70
2023-05-19T01:09:41.657Z,0.65
2023-05-19T01:12:10.335Z,0.70
2023-05-19T01:14:38.462Z,0.80
2023-05-19T01:17:16.005Z,0.70
2023-05-19T01:19:57.510Z,0.75
2023-05-19T01:22:42.943Z,0.90
2023-05-19T01:25:42.616Z,0.70
2023-05-19T01:28:40.591Z,0.70
2023-05-19T01:31:12.075Z,0.90
2023-05-19T01:33:42.412Z,0.60
2023-05-19T01:36:13.619Z,0.80
2023-05-19T01:38:41.839Z,0.73
2023-05-19T01:41:10.911Z,0.85
2023-05-19T01:43:39.778Z,0.77
2023-05-19T01:48:38.323Z,0.73
2023-05-19T01:51:06.878Z,0.80
2023-05-19T01:53:34.942Z,0.80
2023-05-19T01:56:03.405Z,0.60
2023-05-19T01:58:39.392Z,1.00
2023-05-19T02:01:16.956Z,0.80
2023-05-19T02:04:01.947Z,0.80
2023-05-19T02:06:41.651Z,0.70
2023-05-19T02:09:16.842Z,0.70
2023-05-19T02:11:53.296Z,0.98
2023-05-19T02:14:25.661Z,0.80
2023-05-19T02:16:55.000Z,0.80
2023-05-19T02:19:26.251Z,0.80
2023-05-19T02:21:54.396Z,0.80
2023-05-19T02:24:23.088Z,0.73
2023-05-19T02:26:52.014Z,0.70
2023-05-19T02:29:20.559Z,0.80
2023-05-19T02:31:49.206Z,0.93
2023-05-19T02:34:17.278Z,0.80
2023-05-19T02:36:49.896Z,0.65
2023-05-19T02:39:17.985Z,0.55
2023-05-19T02:41:45.945Z,0.73
2023-05-19T02:44:14.095Z,0.70
2023-05-19T02:46:42.196Z,0.63
2023-05-19T02:49:11.542Z,0.80
2023-05-19T02:51:39.541Z,0.70
2023-05-19T02:54:08.929Z,1.10
2023-05-19T02:56:36.887Z,0.80
2023-05-19T02:59:04.875Z,0.70
2023-05-19T03:01:33.905Z,0.70
2023-05-19T03:04:02.303Z,0.60
2023-05-19T03:06:32.508Z,0.77
2023-05-19T03:09:00.515Z,0.82
2023-05-19T03:11:31.015Z,0.80
2023-05-19T03:13:59.829Z,0.80
2023-05-19T03:18:56.569Z,0.50
2023-05-19T03:21:24.831Z,0.70
2023-05-19T03:23:52.796Z,0.80
2023-05-19T03:26:20.825Z,0.73
2023-05-19T03:28:50.148Z,0.73
2023-05-19T03:31:18.182Z,0.60
2023-05-19T03:33:46.231Z,0.77
2023-05-19T03:36:14.212Z,0.65
2023-05-19T03:38:42.251Z,0.75
2023-05-19T03:41:10.267Z,0.80
2023-05-19T03:43:38.244Z,0.90
2023-05-19T03:46:07.794Z,0.70
2023-05-19T03:48:35.875Z,0.80
2023-05-19T03:51:04.471Z,0.82
2023-05-19T03:53:32.424Z,0.77
2023-05-19T03:56:00.721Z,1.08
2023-05-19T03:58:30.091Z,0.90
2023-05-19T04:00:58.081Z,0.80
2023-05-19T04:03:28.665Z,0.80
2023-05-19T04:05:56.801Z,0.80
2023-05-19T04:08:24.825Z,0.68
2023-05-19T04:10:52.817Z,0.90
2023-05-19T04:13:20.794Z,0.88
2023-05-19T04:15:48.996Z,1.05
2023-05-19T04:18:17.016Z,0.90
2023-05-19T04:20:46.390Z,0.60
2023-05-19T04:23:16.998Z,0.80
2023-05-19T04:25:45.010Z,0.95
2023-05-19T04:28:13.032Z,0.90
2023-05-19T04:30:42.650Z,1.00
2023-05-19T04:33:10.904Z,1.38
2023-05-19T04:35:39.802Z,0.85
2023-05-19T04:40:38.020Z,0.88
2023-05-19T04:43:07.409Z,0.73
2023-05-19T04:45:37.729Z,0.90
2023-05-19T04:48:06.236Z,0.95
2023-05-19T04:50:34.479Z,0.80
2023-05-19T04:53:02.619Z,1.17
2023-05-19T04:55:33.010Z,0.90
2023-05-19T04:58:07.807Z,1.00
2023-05-19T05:00:36.491Z,1.13
2023-05-19T05:05:34.232Z,0.93
2023-05-19T05:08:03.295Z,1.08
2023-05-19T05:10:33.050Z,1.10
2023-05-19T05:13:02.270Z,0.80
2023-05-19T05:15:30.981Z,0.80
2023-05-19T05:20:28.014Z,1.30
2023-05-19T05:22:57.772Z,0.95
2023-05-19T05:25:26.315Z,0.90
2023-05-19T05:27:55.896Z,0.90
2023-05-19T05:30:23.854Z,0.90
2023-05-19T05:32:52.094Z,1.20
2023-05-19T05:35:22.317Z,1.20
2023-05-19T05:37:50.316Z,0.90
2023-05-19T05:40:18.700Z,1.23
2023-05-19T05:42:46.810Z,1.10
2023-05-19T05:45:16.201Z,1.17
2023-05-19T05:47:44.727Z,0.98
2023-05-19T05:50:14.686Z,1.42
2023-05-19T05:52:46.892Z,0.90
2023-05-19T05:55:17.519Z,0.70
2023-05-19T05:57:45.584Z,1.05
2023-05-19T06:00:16.513Z,0.77
2023-05-19T06:02:47.846Z,1.48
2023-05-19T06:05:16.660Z,0.80
2023-05-19T06:07:45.069Z,0.85
2023-05-19T06:10:13.157Z,0.70
2023-05-19T06:12:41.352Z,0.90
2023-05-19T06:15:09.897Z,0.90
2023-05-19T06:17:39.499Z,0.75
2023-05-19T06:20:10.311Z,0.70
2023-05-19T06:22:38.462Z,0.80
2023-05-19T06:25:09.013Z,0.65
2023-05-19T06:27:37.354Z,0.77
2023-05-19T06:30:06.480Z,0.90
2023-05-19T06:32:34.579Z,0.80
2023-05-19T06:35:04.447Z,0.80
2023-05-19T06:37:32.797Z,0.80
2023-05-19T06:40:00.964Z,0.80
2023-05-19T06:42:31.742Z,0.73
2023-05-19T06:45:01.199Z,0.55
2023-05-19T06:47:29.358Z,0.95
2023-05-19T06:49:58.037Z,0.60
2023-05-19T06:52:27.388Z,0.63
2023-05-19T06:54:55.406Z,0.90
2023-05-19T06:57:23.501Z,0.70
2023-05-19T06:59:51.508Z,0.80
2023-05-19T07:02:19.550Z,1.15
2023-05-19T07:04:47.583Z,0.75
2023-05-19T07:07:15.751Z,0.60
2023-05-19T07:09:45.188Z,0.77
2023-05-19T07:12:13.220Z,0.98
2023-05-19T07:14:41.245Z,0.85
2023-05-19T07:17:09.462Z,0.82
2023-05-19T07:19:37.458Z,0.80
2023-05-19T07:22:05.984Z,0.82
2023-05-19T07:27:04.520Z,0.90
2023-05-19T07:29:32.540Z,0.73
2023-05-19T07:32:03.409Z,1.00
2023-05-19T07:34:31.491Z,0.70
2023-05-19T07:36:59.477Z,0.75
2023-05-19T07:39:29.790Z,0.82
2023-05-19T07:41:59.543Z,0.95
2023-05-19T07:44:31.352Z,0.80
2023-05-19T07:46:59.334Z,0.73
2023-05-19T07:49:27.415Z,0.73
2023-05-19T07:51:55.448Z,0.80
2023-05-19T07:54:23.478Z,1.08
2023-05-19T07:56:51.824Z,0.80
2023-05-19T07:59:19.864Z,0.70
2023-05-19T08:01:52.330Z,0.85
2023-05-19T08:04:20.472Z,0.88
2023-05-19T08:06:48.587Z,0.85
2023-05-19T08:09:20.231Z,1.00
2023-05-19T08:11:48.380Z,1.15
2023-05-19T08:14:16.500Z,0.70
2023-05-19T08:16:46.185Z,0.90
2023-05-19T08:19:17.632Z,1.00
2023-05-19T08:21:45.667Z,1.10
2023-05-19T08:24:13.740Z,1.40
2023-05-19T08:26:41.736Z,1.00
2023-05-19T08:29:12.859Z,0.90
2023-05-19T08:31:41.034Z,0.98
2023-05-19T08:34:09.534Z,1.00
2023-05-19T08:36:39.141Z,0.88
2023-05-19T08:39:07.122Z,0.85
2023-05-19T08:41:37.579Z,0.80
2023-05-19T08:44:06.080Z,0.80
2023-05-19T08:46:34.261Z,1.00
2023-05-19T08:49:10.773Z,0.90
2023-05-19T08:51:45.815Z,0.90
2023-05-19T08:54:20.873Z,1.20
2023-05-19T08:56:49.620Z,1.08
2023-05-19T08:59:19.442Z,0.90
2023-05-19T09:01:48.429Z,0.90
2023-05-19T09:04:18.099Z,0.95
2023-05-19T09:06:53.076Z,0.88
2023-05-19T09:09:21.187Z,0.82
2023-05-19T09:11:49.397Z,0.90
2023-05-19T09:14:17.395Z,0.90
2023-05-19T09:16:49.976Z,1.05
2023-05-19T09:19:18.203Z,0.93
2023-05-19T09:21:46.529Z,1.20
2023-05-19T09:24:16.503Z,1.08
2023-05-19T09:26:47.634Z,1.08
2023-05-19T09:29:17.741Z,1.08
2023-05-19T09:31:50.765Z,1.00
2023-05-19T09:34:20.724Z,1.00
2023-05-19T09:36:50.746Z,1.02
2023-05-19T09:39:21.754Z,0.85
2023-05-19T09:41:53.675Z,0.98
2023-05-19T09:44:29.200Z,0.80
2023-05-19T09:46:58.300Z,0.80
2023-05-19T09:49:31.882Z,1.08
2023-05-19T09:52:01.863Z,0.90
2023-05-19T09:54:32.597Z,0.95
2023-05-19T09:57:01.896Z,0.95
2023-05-19T09:59:33.371Z,0.80
2023-05-19T10:02:05.144Z,0.80
2023-05-19T10:04:33.234Z,0.85
2023-05-19T10:07:05.778Z,0.70
2023-05-19T10:09:37.572Z,1.00
2023-05-19T10:12:06.716Z,1.00
2023-05-19T10:14:34.692Z,0.70
2023-05-19T10:17:02.809Z,1.13
2023-05-19T10:19:31.259Z,0.95
2023-05-19T10:21:59.233Z,1.10
2023-05-19T10:24:27.778Z,1.00
2023-05-19T10:27:02.605Z,0.80
2023-05-19T10:29:34.632Z,1.13
2023-05-19T10:32:09.228Z,1.10
2023-05-19T10:35:02.207Z,0.80
2023-05-19T10:37:38.672Z,1.00
2023-05-19T10:40:12.223Z,0.90
2023-05-19T10:42:49.391Z,0.90
2023-05-19T10:45:21.151Z,1.17
2023-05-19T10:47:51.620Z,0.90
2023-05-19T10:50:21.365Z,0.90
2023-05-19T10:52:55.711Z,0.75
2023-05-19T10:55:48.804Z,0.90
2023-05-19T10:58:38.243Z,0.90
2023-05-19T11:01:10.037Z,1.05
2023-05-19T11:03:48.794Z,0.95
2023-05-19T11:06:22.658Z,0.80
2023-05-19T11:08:55.561Z,1.08
2023-05-19T11:11:23.847Z,1.13
2023-05-19T11:16:28.420Z,0.90
2023-05-19T11:18:57.501Z,0.90
2023-05-19T11:21:25.793Z,1.15
2023-05-19T11:23:54.005Z,1.02
2023-05-19T11:29:11.968Z,0.98
2023-05-19T11:31:41.476Z,1.10
2023-05-19T11:34:10.101Z,1.15
2023-05-19T11:36:40.080Z,1.10
2023-05-19T11:39:10.623Z,1.10
2023-05-19T11:41:40.668Z,1.10
2023-05-19T11:44:12.886Z,1.02
2023-05-19T11:46:41.045Z,1.10
2023-05-19T11:49:09.238Z,0.90
2023-05-19T11:51:38.424Z,1.35
2023-05-19T11:54:06.659Z,1.30
2023-05-19T11:56:35.922Z,1.10
2023-05-19T11:59:03.982Z,1.05
2023-05-19T12:01:35.262Z,1.33
2023-05-19T12:04:03.361Z,1.10
2023-05-19T12:06:31.899Z,1.13
2023-05-19T12:09:00.078Z,1.10
2023-05-19T12:11:29.581Z,1.30
2023-05-19T12:14:00.178Z,1.15
2023-05-19T12:16:35.947Z,1.05
2023-05-19T12:19:06.817Z,1.00
2023-05-19T12:21:34.994Z,1.27
2023-05-19T12:24:03.445Z,1.05
2023-05-19T12:26:31.613Z,1.30
2023-05-19T12:29:00.059Z,1.48
2023-05-19T12:31:28.112Z,1.30
2023-05-19T12:33:57.658Z,1.33
2023-05-19T12:36:27.229Z,1.20
2023-05-19T12:38:56.066Z,1.30
2023-05-19T12:41:27.406Z,1.13
2023-05-19T12:43:56.089Z,1.55
2023-05-19T12:46:24.189Z,1.27
2023-05-19T12:48:52.313Z,1.40
2023-05-19T12:51:22.197Z,1.27
2023-05-19T12:53:51.687Z,1.60
2023-05-19T12:56:19.809Z,1.30
2023-05-19T12:58:47.839Z,1.20
2023-05-19T13:01:20.086Z,1.30
2023-05-19T13:03:48.659Z,1.60
2023-05-19T13:06:16.876Z,1.33
2023-05-19T13:08:48.509Z,1.60
2023-05-19T13:11:16.629Z,1.67
2023-05-19T13:16:13.619Z,1.40
2023-05-19T13:18:44.284Z,1.40
2023-05-19T13:21:12.351Z,1.35
2023-05-19T13:23:40.387Z,1.60
2023-05-19T13:26:11.697Z,1.60
2023-05-19T13:28:39.687Z,2.08
2023-05-19T13:31:07.788Z,1.90
2023-05-19T13:36:03.603Z,1.48
2023-05-19T13:38:31.728Z,1.48
2023-05-19T13:40:59.832Z,1.50
2023-05-19T13:43:29.422Z,1.80
2023-05-19T13:45:57.701Z,1.55
2023-05-19T13:50:55.622Z,1.52
2023-05-19T13:53:23.655Z,1.77
2023-05-19T13:58:21.062Z,1.77
2023-05-19T14:00:54.663Z,1.75
2023-05-19T14:03:22.824Z,1.80
2023-05-19T14:08:18.872Z,1.33
2023-05-19T14:13:31.018Z,1.60
2023-05-19T14:16:01.366Z,1.70
2023-05-19T14:18:29.421Z,1.75
2023-05-19T14:23:25.275Z,1.63
2023-05-19T14:25:53.399Z,1.70
2023-05-19T14:28:21.414Z,1.90
2023-05-19T14:30:49.957Z,1.90
2023-05-19T14:33:20.586Z,1.77
2023-05-19T14:35:48.612Z,1.83
2023-05-19T14:38:18.742Z,1.88
2023-05-19T14:40:48.486Z,2.10
2023-05-19T14:43:16.571Z,1.80
2023-05-19T14:45:45.199Z,1.88
2023-05-19T14:48:13.420Z,2.17
2023-05-19T14:50:42.914Z,2.10
2023-05-19T14:53:11.367Z,2.17
2023-05-19T14:55:39.314Z,1.85
2023-05-19T14:58:15.940Z,1.88
2023-05-19T15:00:54.651Z,1.98
2023-05-19T15:03:23.318Z,1.90
2023-05-19T15:05:52.739Z,1.92
2023-05-19T15:08:21.041Z,2.30
2023-05-19T15:10:49.965Z,2.20
2023-05-19T15:13:18.967Z,1.60
2023-05-19T15:15:47.315Z,2.05
2023-05-19T15:18:17.875Z,1.92
2023-05-19T15:20:46.617Z,1.77
2023-05-19T15:23:16.023Z,1.95
2023-05-19T15:25:51.517Z,1.75
2023-05-19T15:28:20.637Z,2.20
2023-05-19T15:30:48.619Z,2.10
2023-05-19T15:33:16.810Z,1.80
2023-05-19T15:35:44.897Z,2.00
2023-05-19T15:38:13.137Z,1.90
2023-05-19T15:40:43.922Z,1.98
2023-05-19T15:43:11.945Z,1.90
2023-05-19T15:45:39.921Z,2.30
2023-05-19T15:48:08.583Z,2.15
2023-05-19T15:50:37.059Z,2.00
2023-05-19T15:53:06.957Z,2.05
2023-05-19T15:55:35.010Z,2.40
2023-05-19T15:58:04.389Z,2.10
2023-05-19T16:00:32.824Z,2.10
2023-05-19T16:03:01.299Z,2.42
2023-05-19T16:05:29.471Z,1.80
2023-05-19T16:07:57.548Z,2.20
2023-05-19T16:10:25.537Z,1.90
2023-05-19T16:12:53.859Z,2.00
2023-05-19T16:15:23.312Z,1.83
2023-05-19T16:17:51.330Z,1.80
2023-05-19T16:20:20.284Z,1.70
2023-05-19T16:22:48.337Z,2.10
2023-05-19T16:25:16.452Z,2.10
2023-05-19T16:27:44.499Z,2.00
2023-05-19T16:32:42.190Z,2.00
2023-05-19T16:35:10.972Z,1.95
2023-05-19T16:37:39.215Z,2.28
2023-05-19T16:40:08.442Z,1.80
2023-05-19T16:42:36.390Z,2.00
2023-05-19T16:45:04.872Z,2.20
2023-05-19T16:47:33.129Z,2.08
2023-05-19T16:50:02.588Z,1.98
2023-05-19T16:52:30.677Z,2.00
2023-05-19T16:54:58.688Z,1.85
2023-05-19T16:57:26.689Z,2.08
2023-05-19T16:59:54.706Z,1.60
2023-05-19T17:02:22.834Z,1.77
2023-05-19T17:07:20.053Z,1.80
2023-05-19T17:09:48.286Z,1.88
2023-05-19T17:14:44.314Z,2.22
2023-05-19T17:19:40.199Z,1.80
2023-05-19T17:22:10.561Z,1.50
2023-05-19T17:24:39.985Z,1.90
2023-05-19T17:27:08.460Z,1.80
2023-05-19T17:29:36.970Z,1.98
2023-05-19T17:32:05.491Z,1.92
2023-05-19T17:34:33.596Z,1.75
2023-05-19T17:37:01.644Z,2.00
2023-05-19T17:39:29.691Z,1.90
2023-05-19T17:41:59.090Z,1.73
2023-05-19T17:44:27.220Z,1.83
2023-05-19T17:46:55.448Z,1.88
2023-05-19T17:51:54.600Z,1.85
2023-05-19T17:54:23.269Z,1.80
2023-05-19T17:56:52.606Z,1.92
2023-05-19T17:59:22.652Z,1.77
2023-05-19T18:01:51.479Z,1.98
2023-05-19T18:04:20.383Z,2.08
2023-05-19T18:06:52.033Z,2.10
2023-05-19T18:09:31.520Z,2.30
2023-05-19T18:12:02.216Z,1.63
2023-05-19T18:14:31.805Z,2.13
2023-05-19T18:16:59.878Z,2.17
2023-05-19T18:19:27.973Z,1.95
2023-05-19T18:21:56.228Z,2.03
2023-05-19T18:26:52.013Z,2.60
2023-05-19T18:29:20.033Z,1.92
2023-05-19T18:31:49.436Z,2.25
2023-05-19T18:34:17.455Z,1.98
2023-05-19T18:36:45.525Z,1.85
2023-05-19T18:39:13.509Z,2.40
2023-05-19T18:41:42.840Z,1.95
2023-05-19T18:44:11.622Z,2.03
2023-05-19T18:46:39.622Z,1.90
2023-05-19T18:49:11.556Z,2.13
2023-05-19T18:51:39.855Z,1.92
2023-05-19T18:54:08.445Z,2.00
2023-05-19T18:56:36.596Z,2.08
2023-05-19T18:59:04.615Z,1.85
2023-05-19T19:01:32.671Z,2.08
2023-05-19T19:04:01.100Z,1.95
2023-05-19T19:06:31.401Z,1.73
2023-05-19T19:08:59.401Z,2.05
2023-05-19T19:11:27.536Z,2.13
2023-05-19T19:13:56.810Z,2.30
2023-05-19T19:16:24.967Z,1.83
2023-05-19T19:18:53.110Z,1.98
2023-05-19T19:21:24.022Z,1.83
2023-05-19T19:23:54.783Z,1.83
2023-05-19T19:26:25.100Z,1.83
2023-05-19T19:28:53.063Z,1.90
2023-05-19T19:31:21.290Z,1.83
2023-05-19T19:33:49.309Z,2.00
2023-05-19T19:36:17.552Z,1.90
2023-05-19T19:38:45.588Z,1.83
2023-05-19T19:41:14.981Z,1.70
2023-05-19T19:43:42.936Z,1.95
2023-05-19T19:46:11.249Z,1.90
2023-05-19T19:48:39.369Z,1.98
2023-05-19T19:51:07.407Z,1.52
2023-05-19T19:53:35.384Z,1.67
2023-05-19T19:56:05.243Z,1.80
2023-05-19T19:58:34.925Z,2.00
2023-05-19T20:01:04.521Z,1.88
2023-05-19T20:03:33.623Z,2.10
2023-05-19T20:06:01.738Z,2.10
2023-05-19T20:08:29.754Z,2.08
2023-05-19T20:10:57.757Z,1.90
2023-05-19T20:13:25.766Z,1.90
2023-05-19T20:15:55.244Z,1.92
2023-05-19T20:18:23.260Z,1.90
2023-05-19T20:20:51.286Z,2.45
2023-05-19T20:23:19.246Z,1.95
2023-05-19T20:25:54.772Z,2.08
2023-05-19T20:28:30.914Z,2.05
2023-05-19T20:31:00.351Z,2.08
2023-05-19T20:33:31.911Z,1.98
2023-05-19T20:35:59.853Z,1.92
2023-05-19T20:38:27.895Z,1.95
2023-05-19T20:40:55.959Z,2.45
2023-05-19T20:43:23.963Z,2.17
2023-05-19T20:45:52.475Z,1.92
2023-05-19T20:48:22.054Z,1.95
2023-05-19T20:50:50.081Z,2.75
2023-05-19T20:53:21.554Z,2.10
2023-05-19T20:55:49.875Z,2.22
2023-05-19T20:58:17.898Z,2.00
2023-05-19T21:00:46.158Z,2.08
2023-05-19T21:03:14.224Z,2.50
2023-05-19T21:05:43.864Z,1.85
2023-05-19T21:08:17.763Z,2.10
2023-05-19T21:10:45.874Z,2.30
2023-05-19T21:13:13.940Z,2.20
2023-05-19T21:15:41.959Z,2.30
2023-05-19T21:18:11.471Z,2.10
2023-05-19T21:20:39.648Z,2.10
2023-05-19T21:23:09.001Z,2.38
2023-05-19T21:25:37.037Z,2.40
2023-05-19T21:28:06.068Z,2.03
2023-05-19T21:30:34.303Z,2.00
2023-05-19T21:33:02.614Z,2.05
2023-05-19T21:35:30.647Z,2.00
2023-05-19T21:38:03.899Z,2.05
2023-05-19T21:40:38.781Z,2.00
2023-05-19T21:43:07.079Z,1.98
2023-05-19T21:45:35.080Z,2.20
2023-05-19T21:48:03.135Z,2.05
2023-05-19T21:50:31.369Z,2.50
2023-05-19T21:52:59.484Z,2.42
2023-05-19T21:55:27.532Z,2.40
2023-05-19T21:57:56.866Z,1.90
2023-05-19T22:00:25.826Z,2.20
2023-05-19T22:02:53.927Z,2.10
2023-05-19T22:05:22.039Z,2.30
2023-05-19T22:07:50.041Z,2.05
2023-05-19T22:10:18.099Z,1.60
2023-05-19T22:12:46.066Z,2.10
2023-05-19T22:15:15.996Z,2.20
2023-05-19T22:17:44.275Z,2.15
2023-05-19T22:20:13.171Z,2.00
2023-05-19T22:22:41.398Z,2.38
2023-05-19T22:25:09.867Z,1.92
2023-05-19T22:27:37.861Z,2.25
2023-05-19T22:30:07.275Z,2.08
2023-05-19T22:32:37.022Z,1.92
2023-05-19T22:35:06.640Z,1.90
2023-05-19T22:37:34.719Z,1.90
2023-05-19T22:40:02.747Z,2.10
2023-05-19T22:42:30.705Z,2.30
2023-05-19T22:44:58.758Z,1.90
2023-05-19T22:47:26.943Z,2.20
2023-05-19T22:49:57.113Z,2.60
2023-05-19T22:52:25.371Z,1.90
2023-05-19T22:54:53.541Z,2.20
2023-05-19T22:57:21.536Z,2.17
2023-05-19T22:59:49.526Z,1.85
2023-05-19T23:02:17.550Z,1.85
2023-05-19T23:04:45.617Z,2.10
2023-05-19T23:07:15.162Z,1.90
2023-05-19T23:09:43.160Z,2.42
2023-05-19T23:12:11.136Z,2.30
2023-05-19T23:14:39.140Z,2.20
2023-05-19T23:17:07.434Z,2.25
2023-05-19T23:19:36.589Z,2.25
2023-05-19T23:22:04.579Z,2.03
2023-05-19T23:24:33.948Z,1.95
2023-05-19T23:27:02.091Z,2.30
2023-05-19T23:29:30.119Z,1.75
2023-05-19T23:31:58.095Z,2.05
2023-05-19T23:34:26.092Z,1.90
2023-05-19T23:36:54.078Z,1.90
2023-05-19T23:39:25.187Z,1.85
2023-05-19T23:41:54.536Z,1.90
2023-05-19T23:44:22.536Z,2.30
2023-05-19T23:46:50.682Z,2.08
2023-05-19T23:49:19.799Z,1.98
2023-05-19T23:51:47.772Z,2.30
2023-05-19T23:54:15.828Z,1.98
2023-05-19T23:56:44.066Z,1.80
2023-05-19T23:59:13.416Z,1.95
